LRBS/BBU METAR and TAF weather

Enter ICAO airport designator
Station Type Date Time Source
LRBS METAR 2024/02/26 18:30 UTC NOAA

LRBS 261830Z 06012KT CAVOK 09/05 Q1016 NOSIG


Station Type Date Time Source
LRBS Decoded METAR 2024/02/26 18:30 UTC NOAA

Bucuresti / Imh, Romania (LRBS) 44-30N 026-08E 91M
Feb 26, 2024 - 01:30 PM EST / 2024.02.26 1830 UTC
Wind: from the ENE (060 degrees) at 14 MPH (12 KT):0
Visibility: greater than 7 mile(s):0
Temperature: 48 F (9 C)
Dew Point: 41 F (5 C)
Relative Humidity: 75%
Pressure (altimeter): 30.00 in. Hg (1016 hPa)
ob: LRBS 261830Z 06012KT CAVOK 09/05 Q1016 NOSIG
cycle: 18

Station Type Date Time Source
LRBS TAF 2024/02/26 18:35 UTC NOAA